createdAt,value
2022-10-09T00:01:17.815Z,4.15
2022-10-09T00:03:47.331Z,4.30
2022-10-09T00:06:34.248Z,5.55
2022-10-09T00:09:02.651Z,3.72
2022-10-09T00:11:31.335Z,3.85
2022-10-09T00:13:58.519Z,3.97
2022-10-09T00:16:26.988Z,3.67
2022-10-09T00:18:54.752Z,3.40
2022-10-09T00:21:30.504Z,4.43
2022-10-09T00:24:01.569Z,3.50
2022-10-09T00:26:29.129Z,3.58
2022-10-09T00:28:56.723Z,3.95
2022-10-09T00:31:24.424Z,3.28
2022-10-09T00:33:51.394Z,3.63
2022-10-09T00:36:23.402Z,2.67
2022-10-09T00:38:51.889Z,3.30
2022-10-09T00:41:30.996Z,3.13
2022-10-09T00:44:04.061Z,2.92
2022-10-09T00:46:42.052Z,2.70
2022-10-09T00:49:27.992Z,3.72
2022-10-09T00:51:57.286Z,3.05
2022-10-09T00:54:27.592Z,2.90
2022-10-09T00:56:55.385Z,2.47
2022-10-09T00:59:22.760Z,2.75
2022-10-09T01:01:49.976Z,2.55
2022-10-09T01:04:17.147Z,2.88
2022-10-09T01:06:53.225Z,3.03
2022-10-09T01:09:25.547Z,2.80
2022-10-09T01:12:00.740Z,2.60
2022-10-09T01:14:39.373Z,2.40
2022-10-09T01:17:18.106Z,2.63
2022-10-09T01:19:53.749Z,2.17
2022-10-09T01:22:33.408Z,2.50
2022-10-09T01:25:14.009Z,2.90
2022-10-09T01:27:42.214Z,2.78
2022-10-09T01:30:12.211Z,2.25
2022-10-09T01:32:43.847Z,2.20
2022-10-09T01:35:13.077Z,2.83
2022-10-09T01:37:43.203Z,2.72
2022-10-09T01:40:12.627Z,2.92
2022-10-09T01:42:40.514Z,2.42
2022-10-09T01:45:08.046Z,2.80
2022-10-09T01:47:35.086Z,2.85
2022-10-09T01:50:14.527Z,3.50
2022-10-09T01:52:52.235Z,2.75
2022-10-09T01:55:30.358Z,3.45
2022-10-09T01:57:57.315Z,3.60
2022-10-09T02:00:25.439Z,4.05
2022-10-09T02:02:54.059Z,3.15
2022-10-09T02:05:28.527Z,3.42
2022-10-09T02:07:56.782Z,4.32
2022-10-09T02:10:25.048Z,3.97
2022-10-09T02:12:56.645Z,4.03
2022-10-09T02:15:30.974Z,4.10
2022-10-09T02:18:13.254Z,5.22
2022-10-09T02:20:45.575Z,5.60
2022-10-09T02:23:15.106Z,4.97
2022-10-09T02:25:42.733Z,4.32
2022-10-09T02:28:10.510Z,4.50
2022-10-09T02:30:51.177Z,4.63
2022-10-09T02:33:18.706Z,4.55
2022-10-09T02:35:45.826Z,4.43
2022-10-09T02:38:12.795Z,5.25
2022-10-09T02:40:39.971Z,4.85
2022-10-09T02:43:07.022Z,5.00
2022-10-09T02:45:33.942Z,4.35
2022-10-09T02:48:01.086Z,4.30
2022-10-09T02:50:28.130Z,4.90
2022-10-09T02:52:55.077Z,3.83
2022-10-09T02:55:22.610Z,4.47
2022-10-09T02:57:49.588Z,4.05
2022-10-09T03:00:16.645Z,4.05
2022-10-09T03:02:43.909Z,3.80
2022-10-09T03:05:11.095Z,3.80
2022-10-09T03:07:38.042Z,4.22
2022-10-09T03:10:05.579Z,4.50
2022-10-09T03:12:32.543Z,4.05
2022-10-09T03:14:59.529Z,3.55
2022-10-09T03:17:27.031Z,3.95
2022-10-09T03:19:53.959Z,4.10
2022-10-09T03:22:20.916Z,4.45
2022-10-09T03:24:48.114Z,4.50
2022-10-09T03:27:15.109Z,5.78
2022-10-09T03:29:42.095Z,5.65
2022-10-09T03:32:09.394Z,3.72
2022-10-09T03:34:36.388Z,3.58
2022-10-09T03:37:03.613Z,4.05
2022-10-09T03:39:30.817Z,3.83
2022-10-09T03:41:57.948Z,3.60
2022-10-09T03:44:24.934Z,4.15
2022-10-09T03:46:52.782Z,3.28
2022-10-09T03:49:19.838Z,3.72
2022-10-09T03:51:46.799Z,3.55
2022-10-09T03:54:14.241Z,3.55
2022-10-09T03:56:41.197Z,3.80
2022-10-09T03:59:09.813Z,3.35
2022-10-09T04:01:37.499Z,3.72
2022-10-09T04:04:04.463Z,3.05
2022-10-09T04:06:31.487Z,3.40
2022-10-09T04:08:58.692Z,3.28
2022-10-09T04:11:25.637Z,3.20
2022-10-09T04:13:52.604Z,3.35
2022-10-09T04:16:19.786Z,3.60
2022-10-09T04:18:47.958Z,3.08
2022-10-09T04:21:14.932Z,3.80
2022-10-09T04:23:42.141Z,4.40
2022-10-09T04:26:11.625Z,4.03
2022-10-09T04:28:38.927Z,2.90
2022-10-09T04:31:06.142Z,2.90
2022-10-09T04:33:33.186Z,3.28
2022-10-09T04:36:00.179Z,2.65
2022-10-09T04:38:27.629Z,3.67
2022-10-09T04:40:58.453Z,3.20
2022-10-09T04:43:25.689Z,2.97
2022-10-09T04:45:53.427Z,3.58
2022-10-09T04:48:20.604Z,2.85
2022-10-09T04:50:47.619Z,2.47
2022-10-09T04:53:15.095Z,2.65
2022-10-09T04:55:43.769Z,2.85
2022-10-09T04:58:12.132Z,2.90
2022-10-09T05:00:44.234Z,3.03
2022-10-09T05:03:12.227Z,2.80
2022-10-09T05:05:39.566Z,4.13
2022-10-09T05:08:06.757Z,3.33
2022-10-09T05:10:33.764Z,2.92
2022-10-09T05:13:00.824Z,3.90
2022-10-09T05:15:28.288Z,4.15
2022-10-09T05:17:55.264Z,4.15
2022-10-09T05:20:22.421Z,3.85
2022-10-09T05:22:49.848Z,4.57
2022-10-09T05:25:17.110Z,4.85
2022-10-09T05:27:44.129Z,4.28
2022-10-09T05:30:11.894Z,6.15
2022-10-09T05:32:38.865Z,5.03
2022-10-09T05:35:06.285Z,5.15
2022-10-09T05:37:33.496Z,5.25
2022-10-09T05:40:00.525Z,5.00
2022-10-09T05:42:27.506Z,5.72
2022-10-09T05:44:55.000Z,5.40
2022-10-09T05:47:22.064Z,5.60
2022-10-09T05:49:49.054Z,5.30
2022-10-09T05:52:16.215Z,4.70
2022-10-09T05:54:43.223Z,5.38
2022-10-09T05:57:10.269Z,6.20
2022-10-09T05:59:37.500Z,4.75
2022-10-09T06:02:04.862Z,6.13
2022-10-09T06:04:31.953Z,6.20
2022-10-09T06:06:59.237Z,4.82
2022-10-09T06:09:26.669Z,4.75
2022-10-09T06:11:54.975Z,7.50
2022-10-09T06:14:24.444Z,5.57
2022-10-09T06:16:51.726Z,5.30
2022-10-09T06:19:20.107Z,5.55
2022-10-09T06:21:47.755Z,3.78
2022-10-09T06:24:25.769Z,4.18
2022-10-09T06:26:54.365Z,4.30
2022-10-09T06:29:21.465Z,4.75
2022-10-09T06:31:48.636Z,4.57
2022-10-09T06:34:15.823Z,5.03
2022-10-09T06:36:42.980Z,4.88
2022-10-09T06:39:10.607Z,4.22
2022-10-09T06:41:37.850Z,4.30
2022-10-09T06:44:07.778Z,3.42
2022-10-09T06:46:37.853Z,4.38
2022-10-09T06:49:07.677Z,3.10
2022-10-09T06:51:35.614Z,3.85
2022-10-09T06:54:07.323Z,3.55
2022-10-09T06:56:34.563Z,3.55
2022-10-09T06:59:03.704Z,3.38
2022-10-09T07:01:32.222Z,3.45
2022-10-09T07:04:02.359Z,5.47
2022-10-09T07:06:32.160Z,3.97
2022-10-09T07:09:04.602Z,4.47
2022-10-09T07:11:35.006Z,4.15
2022-10-09T07:14:05.763Z,3.85
2022-10-09T07:16:36.414Z,4.93
2022-10-09T07:19:07.531Z,4.35
2022-10-09T07:21:36.008Z,3.17
2022-10-09T07:24:04.358Z,4.95
2022-10-09T07:26:33.528Z,4.75
2022-10-09T07:29:01.241Z,5.05
2022-10-09T07:31:28.308Z,4.60
2022-10-09T07:33:56.972Z,3.95
2022-10-09T07:36:24.916Z,4.43
2022-10-09T07:38:54.449Z,4.03
2022-10-09T07:41:23.459Z,3.85
2022-10-09T07:43:51.408Z,4.68
2022-10-09T07:46:20.886Z,3.78
2022-10-09T07:48:48.608Z,3.97
2022-10-09T07:51:18.558Z,4.07
2022-10-09T07:53:45.911Z,3.47
2022-10-09T07:56:19.318Z,4.00
2022-10-09T07:58:50.651Z,3.88
2022-10-09T08:01:20.409Z,3.17
2022-10-09T08:03:49.147Z,4.10
2022-10-09T08:06:16.958Z,3.65
2022-10-09T08:08:44.249Z,4.18
2022-10-09T08:11:14.652Z,2.55
2022-10-09T08:13:42.525Z,2.25
2022-10-09T08:16:10.497Z,2.97
2022-10-09T08:18:38.070Z,2.10
2022-10-09T08:21:08.224Z,2.00
2022-10-09T08:23:35.997Z,2.58
2022-10-09T08:26:04.151Z,2.65
2022-10-09T08:28:31.490Z,3.00
2022-10-09T08:30:58.712Z,1.98
2022-10-09T08:33:27.001Z,3.65
2022-10-09T08:35:54.454Z,2.10
2022-10-09T08:38:45.645Z,1.95
2022-10-09T08:41:15.176Z,2.35
2022-10-09T08:43:45.842Z,2.60
2022-10-09T08:46:51.471Z,2.65
2022-10-09T08:49:26.256Z,2.25
2022-10-09T08:51:55.824Z,2.15
2022-10-09T08:54:35.087Z,1.67
2022-10-09T08:57:10.089Z,2.30
2022-10-09T08:59:37.127Z,2.25
2022-10-09T09:02:27.386Z,2.35
2022-10-09T09:05:04.412Z,2.33
2022-10-09T09:07:45.958Z,2.15
2022-10-09T09:10:35.013Z,2.78
2022-10-09T09:13:37.509Z,3.35
2022-10-09T09:16:45.858Z,2.75
2022-10-09T09:19:22.527Z,2.50
2022-10-09T09:21:51.745Z,2.50
2022-10-09T09:24:22.114Z,2.58
2022-10-09T09:26:53.388Z,2.60
2022-10-09T09:29:23.755Z,2.55
2022-10-09T09:31:59.226Z,2.10
2022-10-09T09:34:41.392Z,3.47
2022-10-09T09:37:11.690Z,2.63
2022-10-09T09:42:28.355Z,2.40
2022-10-09T09:45:12.500Z,2.40
2022-10-09T09:47:44.631Z,2.42
2022-10-09T09:50:28.564Z,2.63
2022-10-09T09:53:11.502Z,2.83
2022-10-09T09:55:38.799Z,2.13
2022-10-09T09:58:08.038Z,2.38
2022-10-09T10:00:35.906Z,1.73
2022-10-09T10:03:13.825Z,1.75
2022-10-09T10:05:42.617Z,2.30
2022-10-09T10:08:29.246Z,2.55
2022-10-09T10:10:59.380Z,1.25
2022-10-09T10:13:46.409Z,1.90
2022-10-09T10:16:23.092Z,2.85
2022-10-09T10:18:50.824Z,1.67
2022-10-09T10:21:19.901Z,1.65
2022-10-09T10:26:49.140Z,1.65
2022-10-09T10:29:20.641Z,1.95
2022-10-09T10:32:00.037Z,1.77
2022-10-09T10:34:33.988Z,1.77
2022-10-09T10:37:30.338Z,1.70
2022-10-09T10:40:05.987Z,3.00
2022-10-09T10:42:47.742Z,2.47
2022-10-09T10:45:33.164Z,2.25
2022-10-09T10:48:03.344Z,1.92
2022-10-09T10:50:37.216Z,2.00
2022-10-09T10:53:15.611Z,1.75
2022-10-09T10:55:53.772Z,1.15
2022-10-09T10:58:30.648Z,2.10
2022-10-09T11:01:16.682Z,1.50
2022-10-09T11:03:56.160Z,1.60
2022-10-09T11:06:32.755Z,1.27
2022-10-09T11:09:08.911Z,2.22
2022-10-09T11:11:52.532Z,1.98
2022-10-09T11:14:57.221Z,1.50
2022-10-09T11:17:35.597Z,1.83
2022-10-09T11:20:24.663Z,1.80
2022-10-09T11:23:32.249Z,1.92
2022-10-09T11:26:11.416Z,1.70
2022-10-09T11:28:52.111Z,1.40
2022-10-09T11:31:28.447Z,1.42
2022-10-09T11:34:03.239Z,1.88
2022-10-09T11:36:44.662Z,0.93
2022-10-09T11:39:18.758Z,0.82
2022-10-09T11:41:48.637Z,1.30
2022-10-09T11:44:34.120Z,1.20
2022-10-09T11:47:34.231Z,0.90
2022-10-09T11:50:27.799Z,1.38
2022-10-09T11:53:04.751Z,1.10
2022-10-09T11:55:33.799Z,1.13
2022-10-09T11:58:27.721Z,1.27
2022-10-09T12:00:57.720Z,1.42
2022-10-09T12:03:27.657Z,1.20
2022-10-09T12:06:06.433Z,1.10
2022-10-09T12:08:34.199Z,1.27
2022-10-09T12:11:16.924Z,1.20
2022-10-09T12:14:10.417Z,1.10
2022-10-09T12:16:45.923Z,1.00
2022-10-09T12:19:25.002Z,1.00
2022-10-09T12:22:11.389Z,1.42
2022-10-09T12:24:45.011Z,1.05
2022-10-09T12:27:21.579Z,1.13
2022-10-09T12:30:07.997Z,0.90
2022-10-09T12:32:41.848Z,1.20
2022-10-09T12:35:26.096Z,1.73
2022-10-09T12:37:53.650Z,1.40
2022-10-09T12:40:29.989Z,2.65
2022-10-09T12:42:58.672Z,1.85
2022-10-09T12:45:30.444Z,1.58
2022-10-09T12:48:01.908Z,2.10
2022-10-09T12:50:34.659Z,1.40
2022-10-09T12:53:13.488Z,1.48
2022-10-09T12:55:46.448Z,1.58
2022-10-09T12:58:18.909Z,1.52
2022-10-09T13:03:38.004Z,1.25
2022-10-09T13:06:43.952Z,2.03
2022-10-09T13:09:32.940Z,1.33
2022-10-09T13:12:09.846Z,1.10
2022-10-09T13:14:45.600Z,1.00
2022-10-09T13:17:39.581Z,1.75
2022-10-09T13:22:40.255Z,0.98
2022-10-09T13:25:08.777Z,0.85
2022-10-09T13:27:39.620Z,1.42
2022-10-09T13:30:07.594Z,1.90
2022-10-09T13:32:34.587Z,1.25
2022-10-09T13:35:01.740Z,1.33
2022-10-09T13:37:29.907Z,1.10
2022-10-09T13:39:59.127Z,0.95
2022-10-09T13:42:30.079Z,1.10
2022-10-09T13:44:57.334Z,1.40
2022-10-09T13:47:25.573Z,1.10
2022-10-09T13:49:52.781Z,1.08
2022-10-09T13:52:19.892Z,0.80
2022-10-09T13:54:47.502Z,1.00
2022-10-09T13:57:15.533Z,0.90
2022-10-09T13:59:42.600Z,0.75
2022-10-09T14:02:13.533Z,1.00
2022-10-09T14:04:41.334Z,0.90
2022-10-09T14:07:08.778Z,0.90
2022-10-09T14:09:36.169Z,0.98
2022-10-09T14:12:03.772Z,1.20
2022-10-09T14:14:30.797Z,1.63
2022-10-09T14:16:57.840Z,1.23
2022-10-09T14:19:27.759Z,1.25
2022-10-09T14:21:56.503Z,1.60
2022-10-09T14:24:24.459Z,1.25
2022-10-09T14:26:52.788Z,1.25
2022-10-09T14:29:20.130Z,1.00
2022-10-09T14:31:50.128Z,1.45
2022-10-09T14:34:17.829Z,2.00
2022-10-09T14:36:44.942Z,1.55
2022-10-09T14:39:12.376Z,1.98
2022-10-09T14:41:39.342Z,1.35
2022-10-09T14:44:07.207Z,1.30
2022-10-09T14:46:38.546Z,1.83
2022-10-09T14:49:08.603Z,1.77
2022-10-09T14:51:39.958Z,1.67
2022-10-09T14:54:08.006Z,2.05
2022-10-09T14:56:35.645Z,1.77
2022-10-09T14:59:06.924Z,2.28
2022-10-09T15:01:34.997Z,1.60
2022-10-09T15:04:03.780Z,1.85
2022-10-09T15:06:33.083Z,2.00
2022-10-09T15:09:04.652Z,2.70
2022-10-09T15:14:00.979Z,2.45
2022-10-09T15:16:30.338Z,2.20
2022-10-09T15:18:58.324Z,2.50
2022-10-09T15:21:31.479Z,2.63
2022-10-09T15:24:01.481Z,2.50
2022-10-09T15:26:30.410Z,3.25
2022-10-09T15:28:57.859Z,2.80
2022-10-09T15:31:27.596Z,3.10
2022-10-09T15:33:57.649Z,2.33
2022-10-09T15:36:25.229Z,2.97
2022-10-09T15:38:53.639Z,3.03
2022-10-09T15:41:31.878Z,2.80
2022-10-09T15:44:06.894Z,2.50
2022-10-09T15:46:34.587Z,2.28
2022-10-09T15:49:01.910Z,2.53
2022-10-09T15:51:31.626Z,3.65
2022-10-09T15:54:01.215Z,2.90
2022-10-09T15:56:37.428Z,3.15
2022-10-09T15:59:06.937Z,3.72
2022-10-09T16:01:36.376Z,2.30
2022-10-09T16:04:03.377Z,3.03
2022-10-09T16:06:30.870Z,3.40
2022-10-09T16:08:59.230Z,2.33
2022-10-09T16:11:27.194Z,2.65
2022-10-09T16:13:57.030Z,2.67
2022-10-09T16:16:26.066Z,3.05
2022-10-09T16:18:56.542Z,3.78
2022-10-09T16:21:26.687Z,5.00
2022-10-09T16:23:58.373Z,5.00
2022-10-09T16:26:29.519Z,3.05
2022-10-09T16:28:57.035Z,2.60
2022-10-09T16:31:26.788Z,2.75
2022-10-09T16:33:55.212Z,2.67
2022-10-09T16:36:23.847Z,3.22
2022-10-09T16:38:51.147Z,3.00
2022-10-09T16:41:20.632Z,2.80
2022-10-09T16:43:51.938Z,3.33
2022-10-09T16:46:23.525Z,3.67
2022-10-09T16:48:52.605Z,3.85
2022-10-09T16:51:22.951Z,4.25
2022-10-09T16:53:52.422Z,6.18
2022-10-09T16:56:23.975Z,8.48
2022-10-09T16:58:55.807Z,7.90
2022-10-09T17:01:24.121Z,6.32
2022-10-09T17:03:53.768Z,4.65
2022-10-09T17:06:24.966Z,3.97
2022-10-09T17:08:53.723Z,3.90
2022-10-09T17:11:21.892Z,4.47
2022-10-09T17:13:49.100Z,4.60
2022-10-09T17:16:21.708Z,5.43
2022-10-09T17:18:49.956Z,5.22
2022-10-09T17:21:18.109Z,4.60
2022-10-09T17:23:46.908Z,7.07
2022-10-09T17:26:18.239Z,7.93
2022-10-09T17:28:46.889Z,7.70
2022-10-09T17:31:16.977Z,12.07
2022-10-09T17:33:46.140Z,51.65
2022-10-09T17:36:18.795Z,38.78
2022-10-09T17:38:47.609Z,24.25
2022-10-09T17:41:16.692Z,15.38
2022-10-09T17:43:44.160Z,18.48
2022-10-09T17:46:14.238Z,18.23
2022-10-09T17:48:45.139Z,17.27
2022-10-09T17:51:25.360Z,13.95
2022-10-09T17:53:54.311Z,13.70
2022-10-09T17:56:22.457Z,10.45
2022-10-09T17:58:50.194Z,8.50
2022-10-09T18:01:18.852Z,10.65
2022-10-09T18:03:45.959Z,8.55
2022-10-09T18:06:17.414Z,9.60
2022-10-09T18:08:45.272Z,10.27
2022-10-09T18:11:15.044Z,12.40
2022-10-09T18:13:43.730Z,19.13
2022-10-09T18:16:17.912Z,23.92
2022-10-09T18:18:47.215Z,22.33
2022-10-09T18:21:19.554Z,19.38
2022-10-09T18:23:47.764Z,12.00
2022-10-09T18:26:18.373Z,12.45
2022-10-09T18:28:48.340Z,14.18
2022-10-09T18:31:21.361Z,12.88
2022-10-09T18:36:21.781Z,9.68
2022-10-09T18:38:54.792Z,10.25
2022-10-09T18:41:23.523Z,9.80
2022-10-09T18:43:51.853Z,10.70
2022-10-09T18:46:23.538Z,10.13
2022-10-09T18:48:53.474Z,33.75
2022-10-09T18:51:24.408Z,20.55
2022-10-09T18:53:54.662Z,16.05
2022-10-09T18:56:23.934Z,28.85
2022-10-09T18:58:52.716Z,26.15
2022-10-09T19:01:20.610Z,20.92
2022-10-09T19:03:53.020Z,16.65
2022-10-09T19:06:20.998Z,14.38
2022-10-09T19:08:50.575Z,15.40
2022-10-09T19:11:18.340Z,14.30
2022-10-09T19:13:45.639Z,15.52
2022-10-09T19:16:12.882Z,14.15
2022-10-09T19:18:40.234Z,13.52
2022-10-09T19:21:12.410Z,15.65
2022-10-09T19:23:39.597Z,14.85
2022-10-09T19:26:09.745Z,17.45
2022-10-09T19:28:38.583Z,19.30
2022-10-09T19:31:07.584Z,19.13
2022-10-09T19:33:35.263Z,16.00
2022-10-09T19:36:04.356Z,15.20
2022-10-09T19:38:31.548Z,15.15
2022-10-09T19:41:10.573Z,14.65
2022-10-09T19:43:38.083Z,16.25
2022-10-09T19:46:07.976Z,16.45
2022-10-09T19:48:35.903Z,15.48
2022-10-09T19:51:15.103Z,16.55
2022-10-09T19:53:43.557Z,17.88
2022-10-09T19:56:23.053Z,16.65
2022-10-09T19:58:50.377Z,15.25
2022-10-09T20:01:20.230Z,17.70
2022-10-09T20:03:48.679Z,16.00
2022-10-09T20:06:16.225Z,17.40
2022-10-09T20:08:45.208Z,18.95
2022-10-09T20:11:13.819Z,19.77
2022-10-09T20:13:42.529Z,20.55
2022-10-09T20:16:13.583Z,20.42
2022-10-09T20:18:42.510Z,19.88
2022-10-09T20:21:11.114Z,20.23
2022-10-09T20:23:38.465Z,20.10
2022-10-09T20:26:25.007Z,19.25
2022-10-09T20:28:53.998Z,16.17
2022-10-09T20:31:25.587Z,19.85
2022-10-09T20:33:54.080Z,16.52
2022-10-09T20:36:31.897Z,18.88
2022-10-09T20:39:01.544Z,16.85
2022-10-09T20:41:30.443Z,17.48
2022-10-09T20:43:59.962Z,16.00
2022-10-09T20:46:36.523Z,15.70
2022-10-09T20:49:06.496Z,16.95
2022-10-09T20:51:38.486Z,16.40
2022-10-09T20:54:07.078Z,15.90
2022-10-09T20:56:34.964Z,16.10
2022-10-09T20:59:01.963Z,16.38
2022-10-09T21:01:29.272Z,13.98
2022-10-09T21:03:57.372Z,14.57
2022-10-09T21:06:25.781Z,13.07
2022-10-09T21:08:52.823Z,14.10
2022-10-09T21:11:20.689Z,14.32
2022-10-09T21:13:49.013Z,12.13
2022-10-09T21:16:20.708Z,12.00
2022-10-09T21:18:47.778Z,11.70
2022-10-09T21:21:17.355Z,12.10
2022-10-09T21:23:45.361Z,13.18
2022-10-09T21:26:17.610Z,13.55
2022-10-09T21:28:45.689Z,12.52
2022-10-09T21:31:17.371Z,13.55
2022-10-09T21:33:45.262Z,12.93
2022-10-09T21:36:17.711Z,11.77
2022-10-09T21:38:44.662Z,12.07
2022-10-09T21:41:12.163Z,11.93
2022-10-09T21:43:39.104Z,13.43
2022-10-09T21:46:06.247Z,14.00
2022-10-09T21:48:33.381Z,14.82
2022-10-09T21:51:00.866Z,13.95
2022-10-09T21:53:27.894Z,14.70
2022-10-09T21:55:54.856Z,15.48
2022-10-09T21:58:22.079Z,14.07
2022-10-09T22:00:56.523Z,15.23
2022-10-09T22:03:25.537Z,14.70
2022-10-09T22:05:53.018Z,15.10
2022-10-09T22:08:20.849Z,14.82
2022-10-09T22:10:49.635Z,14.98
2022-10-09T22:13:17.573Z,13.18
2022-10-09T22:15:48.833Z,14.75
2022-10-09T22:18:18.614Z,13.20
2022-10-09T22:20:49.150Z,12.15
2022-10-09T22:23:20.746Z,13.38
2022-10-09T22:26:02.923Z,13.88
2022-10-09T22:28:30.271Z,14.53
2022-10-09T22:31:05.866Z,13.43
2022-10-09T22:33:33.660Z,13.25
2022-10-09T22:36:11.567Z,13.32
2022-10-09T22:38:39.211Z,13.23
2022-10-09T22:41:09.521Z,11.63
2022-10-09T22:43:38.019Z,11.15
2022-10-09T22:46:10.701Z,13.07
2022-10-09T22:48:38.796Z,12.32
2022-10-09T22:51:08.649Z,12.98
2022-10-09T22:53:37.108Z,11.98
2022-10-09T22:56:06.990Z,11.45
2022-10-09T22:58:34.876Z,11.65
2022-10-09T23:01:04.451Z,10.73
2022-10-09T23:03:31.753Z,12.45
2022-10-09T23:06:13.422Z,12.20
2022-10-09T23:08:42.175Z,11.45
2022-10-09T23:11:10.147Z,11.10
2022-10-09T23:13:37.434Z,13.48
2022-10-09T23:16:06.309Z,11.43
2022-10-09T23:18:34.144Z,11.48
2022-10-09T23:21:06.713Z,14.35
2022-10-09T23:23:34.364Z,12.07
2022-10-09T23:26:09.180Z,13.35
2022-10-09T23:28:37.009Z,13.85
2022-10-09T23:31:09.700Z,13.07
2022-10-09T23:33:39.692Z,13.80
2022-10-09T23:36:08.048Z,14.00
2022-10-09T23:38:35.654Z,14.25
2022-10-09T23:41:05.232Z,14.77
2022-10-09T23:43:33.746Z,13.85
2022-10-09T23:46:03.134Z,14.30
2022-10-09T23:48:30.777Z,14.80
2022-10-09T23:50:58.258Z,13.02
2022-10-09T23:53:26.742Z,13.82
2022-10-09T23:55:54.502Z,13.40
2022-10-09T23:58:22.382Z,14.13
